sensor_id;sensor_type;location;lat;lon;timestamp;temperature;humidity
22813;DHT22;11573;51.334;3.244;2023-03-29T00:00:22;8.50;99.90
22813;DHT22;11573;51.334;3.244;2023-03-29T00:02:49;8.60;99.90
22813;DHT22;11573;51.334;3.244;2023-03-29T00:05:19;8.60;99.90
22813;DHT22;11573;51.334;3.244;2023-03-29T00:07:48;8.50;99.90
22813;DHT22;11573;51.334;3.244;2023-03-29T00:10:21;8.60;99.90
22813;DHT22;11573;51.334;3.244;2023-03-29T00:12:50;8.60;99.90
22813;DHT22;11573;51.334;3.244;2023-03-29T00:15:18;8.60;99.90
22813;DHT22;11573;51.334;3.244;2023-03-29T00:17:46;8.60;99.90
22813;DHT22;11573;51.334;3.244;2023-03-29T00:20:13;8.60;99.90
22813;DHT22;11573;51.334;3.244;2023-03-29T00:22:40;8.60;99.90
22813;DHT22;11573;51.334;3.244;2023-03-29T00:25:09;8.60;99.90
22813;DHT22;11573;51.334;3.244;2023-03-29T00:27:37;8.60;99.90
22813;DHT22;11573;51.334;3.244;2023-03-29T00:30:05;8.60;99.90
22813;DHT22;11573;51.334;3.244;2023-03-29T00:32:33;8.60;99.90
22813;DHT22;11573;51.334;3.244;2023-03-29T00:35:00;8.70;99.90
22813;DHT22;11573;51.334;3.244;2023-03-29T00:37:27;8.70;99.90
22813;DHT22;11573;51.334;3.244;2023-03-29T00:39:56;8.70;99.90
22813;DHT22;11573;51.334;3.244;2023-03-29T00:42:24;8.70;99.90
22813;DHT22;11573;51.334;3.244;2023-03-29T00:45:22;8.80;99.90
22813;DHT22;11573;51.334;3.244;2023-03-29T00:47:54;8.70;99.90
22813;DHT22;11573;51.334;3.244;2023-03-29T00:50:29;8.80;99.90
22813;DHT22;11573;51.334;3.244;2023-03-29T00:58:33;8.80;99.90
22813;DHT22;11573;51.334;3.244;2023-03-29T01:01:06;8.80;99.90
22813;DHT22;11573;51.334;3.244;2023-03-29T01:03:44;8.90;99.90
22813;DHT22;11573;51.334;3.244;2023-03-29T01:06:15;8.80;99.90
22813;DHT22;11573;51.334;3.244;2023-03-29T01:08:52;8.90;99.90
22813;DHT22;11573;51.334;3.244;2023-03-29T01:11:32;8.90;99.90
22813;DHT22;11573;51.334;3.244;2023-03-29T01:14:03;8.80;99.90
22813;DHT22;11573;51.334;3.244;2023-03-29T01:16:32;8.80;99.90
22813;DHT22;11573;51.334;3.244;2023-03-29T01:19:00;8.90;99.90
22813;DHT22;11573;51.334;3.244;2023-03-29T01:27:41;8.90;99.90
22813;DHT22;11573;51.334;3.244;2023-03-29T01:30:10;8.90;99.90
22813;DHT22;11573;51.334;3.244;2023-03-29T01:32:46;8.90;99.90
22813;DHT22;11573;51.334;3.244;2023-03-29T01:35:24;8.90;99.90
22813;DHT22;11573;51.334;3.244;2023-03-29T01:38:16;8.90;99.90
22813;DHT22;11573;51.334;3.244;2023-03-29T01:40:45;8.90;99.90
22813;DHT22;11573;51.334;3.244;2023-03-29T01:43:53;8.90;99.90
22813;DHT22;11573;51.334;3.244;2023-03-29T01:49:26;9.00;99.90
22813;DHT22;11573;51.334;3.244;2023-03-29T01:52:17;8.90;99.90
22813;DHT22;11573;51.334;3.244;2023-03-29T01:54:55;8.90;99.90
22813;DHT22;11573;51.334;3.244;2023-03-29T01:57:25;8.90;99.90
22813;DHT22;11573;51.334;3.244;2023-03-29T01:59:54;9.00;99.90
22813;DHT22;11573;51.334;3.244;2023-03-29T02:02:23;9.00;99.90
22813;DHT22;11573;51.334;3.244;2023-03-29T02:04:54;9.00;99.90
22813;DHT22;11573;51.334;3.244;2023-03-29T02:07:25;9.00;99.90
22813;DHT22;11573;51.334;3.244;2023-03-29T02:09:56;9.00;99.90
22813;DHT22;11573;51.334;3.244;2023-03-29T02:12:24;8.90;99.90
22813;DHT22;11573;51.334;3.244;2023-03-29T02:14:52;9.00;99.90
22813;DHT22;11573;51.334;3.244;2023-03-29T02:17:25;9.00;99.90
22813;DHT22;11573;51.334;3.244;2023-03-29T02:20:05;9.00;99.90
22813;DHT22;11573;51.334;3.244;2023-03-29T02:22:48;9.00;99.90
22813;DHT22;11573;51.334;3.244;2023-03-29T02:25:18;9.00;99.90
22813;DHT22;11573;51.334;3.244;2023-03-29T02:27:45;9.00;99.90
22813;DHT22;11573;51.334;3.244;2023-03-29T02:30:12;9.10;99.90
22813;DHT22;11573;51.334;3.244;2023-03-29T02:36:01;9.10;99.90
22813;DHT22;11573;51.334;3.244;2023-03-29T02:38:08;9.20;99.90
22813;DHT22;11573;51.334;3.244;2023-03-29T02:40:41;9.20;99.90
22813;DHT22;11573;51.334;3.244;2023-03-29T02:43:09;9.20;99.90
22813;DHT22;11573;51.334;3.244;2023-03-29T02:45:38;9.20;99.90
22813;DHT22;11573;51.334;3.244;2023-03-29T02:48:09;9.20;99.90
22813;DHT22;11573;51.334;3.244;2023-03-29T02:50:39;9.20;99.90
22813;DHT22;11573;51.334;3.244;2023-03-29T02:53:32;9.30;99.90
22813;DHT22;11573;51.334;3.244;2023-03-29T02:56:00;9.20;99.90
22813;DHT22;11573;51.334;3.244;2023-03-29T02:58:29;9.20;99.90
22813;DHT22;11573;51.334;3.244;2023-03-29T03:01:00;9.30;99.90
22813;DHT22;11573;51.334;3.244;2023-03-29T03:03:28;9.30;99.90
22813;DHT22;11573;51.334;3.244;2023-03-29T03:05:58;9.20;99.90
22813;DHT22;11573;51.334;3.244;2023-03-29T03:08:28;9.20;99.90
22813;DHT22;11573;51.334;3.244;2023-03-29T03:10:55;9.20;99.90
22813;DHT22;11573;51.334;3.244;2023-03-29T03:13:23;9.20;99.90
22813;DHT22;11573;51.334;3.244;2023-03-29T03:15:50;9.30;99.90
22813;DHT22;11573;51.334;3.244;2023-03-29T03:18:17;9.20;99.90
22813;DHT22;11573;51.334;3.244;2023-03-29T03:20:57;9.20;99.90
22813;DHT22;11573;51.334;3.244;2023-03-29T03:23:25;9.30;99.90
22813;DHT22;11573;51.334;3.244;2023-03-29T03:25:52;9.30;99.90
22813;DHT22;11573;51.334;3.244;2023-03-29T03:28:20;9.30;99.90
22813;DHT22;11573;51.334;3.244;2023-03-29T03:30:47;9.20;99.90
22813;DHT22;11573;51.334;3.244;2023-03-29T03:33:24;9.30;99.90
22813;DHT22;11573;51.334;3.244;2023-03-29T03:36:11;9.30;99.90
22813;DHT22;11573;51.334;3.244;2023-03-29T03:38:41;9.30;99.90
22813;DHT22;11573;51.334;3.244;2023-03-29T03:41:10;9.30;99.90
22813;DHT22;11573;51.334;3.244;2023-03-29T03:43:37;9.30;99.90
22813;DHT22;11573;51.334;3.244;2023-03-29T03:46:07;9.20;99.90
22813;DHT22;11573;51.334;3.244;2023-03-29T03:48:34;9.30;99.90
22813;DHT22;11573;51.334;3.244;2023-03-29T03:51:15;9.30;99.90
22813;DHT22;11573;51.334;3.244;2023-03-29T03:53:42;9.20;99.90
22813;DHT22;11573;51.334;3.244;2023-03-29T03:56:09;9.20;99.90
22813;DHT22;11573;51.334;3.244;2023-03-29T03:58:54;9.30;99.90
22813;DHT22;11573;51.334;3.244;2023-03-29T04:01:21;9.30;99.90
22813;DHT22;11573;51.334;3.244;2023-03-29T04:03:59;9.30;99.90
22813;DHT22;11573;51.334;3.244;2023-03-29T04:06:27;9.30;99.90
22813;DHT22;11573;51.334;3.244;2023-03-29T04:09:32;9.30;99.90
22813;DHT22;11573;51.334;3.244;2023-03-29T04:12:13;9.30;99.90
22813;DHT22;11573;51.334;3.244;2023-03-29T04:14:41;9.30;99.90
22813;DHT22;11573;51.334;3.244;2023-03-29T04:17:14;9.30;99.90
22813;DHT22;11573;51.334;3.244;2023-03-29T04:19:52;9.30;99.90
22813;DHT22;11573;51.334;3.244;2023-03-29T04:22:19;9.30;99.90
22813;DHT22;11573;51.334;3.244;2023-03-29T04:24:47;9.30;99.90
22813;DHT22;11573;51.334;3.244;2023-03-29T04:27:43;9.30;99.90
22813;DHT22;11573;51.334;3.244;2023-03-29T04:30:22;9.30;99.90
22813;DHT22;11573;51.334;3.244;2023-03-29T04:33:27;9.30;99.90
22813;DHT22;11573;51.334;3.244;2023-03-29T04:35:58;9.30;99.90
22813;DHT22;11573;51.334;3.244;2023-03-29T04:38:26;9.40;99.90
22813;DHT22;11573;51.334;3.244;2023-03-29T04:40:54;9.40;99.90
22813;DHT22;11573;51.334;3.244;2023-03-29T04:43:43;9.40;99.90
22813;DHT22;11573;51.334;3.244;2023-03-29T04:46:30;9.40;99.90
22813;DHT22;11573;51.334;3.244;2023-03-29T04:49:30;9.50;99.90
22813;DHT22;11573;51.334;3.244;2023-03-29T04:51:58;9.50;99.90
22813;DHT22;11573;51.334;3.244;2023-03-29T04:54:29;9.40;99.90
22813;DHT22;11573;51.334;3.244;2023-03-29T04:57:15;9.40;99.90
22813;DHT22;11573;51.334;3.244;2023-03-29T04:59:51;9.40;99.90
22813;DHT22;11573;51.334;3.244;2023-03-29T05:02:39;9.40;99.90
22813;DHT22;11573;51.334;3.244;2023-03-29T05:05:06;9.50;99.90
22813;DHT22;11573;51.334;3.244;2023-03-29T05:07:34;9.50;99.90
22813;DHT22;11573;51.334;3.244;2023-03-29T05:10:01;9.40;99.90
22813;DHT22;11573;51.334;3.244;2023-03-29T05:12:28;9.50;99.90
22813;DHT22;11573;51.334;3.244;2023-03-29T05:14:56;9.40;99.90
22813;DHT22;11573;51.334;3.244;2023-03-29T05:17:25;9.40;99.90
22813;DHT22;11573;51.334;3.244;2023-03-29T05:19:59;9.40;99.90
22813;DHT22;11573;51.334;3.244;2023-03-29T05:22:27;9.50;99.90
22813;DHT22;11573;51.334;3.244;2023-03-29T05:24:55;9.50;99.90
22813;DHT22;11573;51.334;3.244;2023-03-29T05:27:23;9.50;99.90
22813;DHT22;11573;51.334;3.244;2023-03-29T05:30:05;9.60;99.90
22813;DHT22;11573;51.334;3.244;2023-03-29T05:32:41;9.60;99.90
22813;DHT22;11573;51.334;3.244;2023-03-29T05:35:12;9.60;99.90
22813;DHT22;11573;51.334;3.244;2023-03-29T05:37:39;9.60;99.90
22813;DHT22;11573;51.334;3.244;2023-03-29T05:40:06;9.60;99.90
22813;DHT22;11573;51.334;3.244;2023-03-29T05:42:57;9.60;99.90
22813;DHT22;11573;51.334;3.244;2023-03-29T05:45:25;9.60;99.90
22813;DHT22;11573;51.334;3.244;2023-03-29T05:47:54;9.60;99.90
22813;DHT22;11573;51.334;3.244;2023-03-29T05:50:23;9.60;99.90
22813;DHT22;11573;51.334;3.244;2023-03-29T05:52:53;9.60;99.90
22813;DHT22;11573;51.334;3.244;2023-03-29T05:55:21;9.60;99.90
22813;DHT22;11573;51.334;3.244;2023-03-29T05:57:49;9.70;99.90
22813;DHT22;11573;51.334;3.244;2023-03-29T06:00:20;9.70;99.90
22813;DHT22;11573;51.334;3.244;2023-03-29T06:03:02;9.70;99.90
22813;DHT22;11573;51.334;3.244;2023-03-29T06:05:53;9.70;99.90
22813;DHT22;11573;51.334;3.244;2023-03-29T06:08:21;9.70;99.90
22813;DHT22;11573;51.334;3.244;2023-03-29T06:10:55;9.70;99.90
22813;DHT22;11573;51.334;3.244;2023-03-29T06:13:39;9.80;99.90
22813;DHT22;11573;51.334;3.244;2023-03-29T06:16:09;9.80;99.90
22813;DHT22;11573;51.334;3.244;2023-03-29T06:18:36;9.90;99.90
22813;DHT22;11573;51.334;3.244;2023-03-29T06:21:07;9.90;99.90
22813;DHT22;11573;51.334;3.244;2023-03-29T06:23:35;9.80;99.90
22813;DHT22;11573;51.334;3.244;2023-03-29T06:26:03;9.90;99.90
22813;DHT22;11573;51.334;3.244;2023-03-29T06:28:31;9.90;99.90
22813;DHT22;11573;51.334;3.244;2023-03-29T06:30:59;10.00;99.90
22813;DHT22;11573;51.334;3.244;2023-03-29T06:33:33;9.90;99.90
22813;DHT22;11573;51.334;3.244;2023-03-29T06:36:25;10.00;99.90
22813;DHT22;11573;51.334;3.244;2023-03-29T06:38:53;10.10;99.90
22813;DHT22;11573;51.334;3.244;2023-03-29T06:41:45;10.10;99.90
22813;DHT22;11573;51.334;3.244;2023-03-29T06:44:34;10.10;99.90
22813;DHT22;11573;51.334;3.244;2023-03-29T06:47:09;10.10;99.90
22813;DHT22;11573;51.334;3.244;2023-03-29T06:49:36;10.10;99.90
22813;DHT22;11573;51.334;3.244;2023-03-29T06:52:11;10.00;99.90
22813;DHT22;11573;51.334;3.244;2023-03-29T06:54:38;10.00;99.90
22813;DHT22;11573;51.334;3.244;2023-03-29T06:57:06;9.90;99.90
22813;DHT22;11573;51.334;3.244;2023-03-29T06:59:33;10.00;99.90
22813;DHT22;11573;51.334;3.244;2023-03-29T07:02:27;9.90;99.90
22813;DHT22;11573;51.334;3.244;2023-03-29T07:05:21;9.90;99.90
22813;DHT22;11573;51.334;3.244;2023-03-29T07:07:48;10.00;99.90
22813;DHT22;11573;51.334;3.244;2023-03-29T07:10:47;9.90;99.90
22813;DHT22;11573;51.334;3.244;2023-03-29T07:13:33;9.90;99.90
22813;DHT22;11573;51.334;3.244;2023-03-29T07:16:03;10.00;99.90
22813;DHT22;11573;51.334;3.244;2023-03-29T07:18:53;10.10;99.90
22813;DHT22;11573;51.334;3.244;2023-03-29T07:21:39;10.10;99.90
22813;DHT22;11573;51.334;3.244;2023-03-29T07:24:06;10.10;99.90
22813;DHT22;11573;51.334;3.244;2023-03-29T07:26:36;10.10;99.90
22813;DHT22;11573;51.334;3.244;2023-03-29T07:29:04;10.30;99.90
22813;DHT22;11573;51.334;3.244;2023-03-29T07:31:32;10.30;99.90
22813;DHT22;11573;51.334;3.244;2023-03-29T07:34:21;10.40;99.90
22813;DHT22;11573;51.334;3.244;2023-03-29T07:36:48;10.50;99.90
22813;DHT22;11573;51.334;3.244;2023-03-29T07:39:15;10.60;99.90
22813;DHT22;11573;51.334;3.244;2023-03-29T07:42:02;10.70;99.90
22813;DHT22;11573;51.334;3.244;2023-03-29T07:44:29;10.70;99.90
22813;DHT22;11573;51.334;3.244;2023-03-29T07:46:56;10.80;99.90
22813;DHT22;11573;51.334;3.244;2023-03-29T07:49:25;11.10;99.90
22813;DHT22;11573;51.334;3.244;2023-03-29T07:51:52;11.40;99.90
22813;DHT22;11573;51.334;3.244;2023-03-29T07:54:22;11.30;99.90
22813;DHT22;11573;51.334;3.244;2023-03-29T07:57:00;11.40;99.90
22813;DHT22;11573;51.334;3.244;2023-03-29T07:59:35;11.10;99.90
22813;DHT22;11573;51.334;3.244;2023-03-29T08:02:10;11.10;99.90
22813;DHT22;11573;51.334;3.244;2023-03-29T08:04:40;11.00;99.90
22813;DHT22;11573;51.334;3.244;2023-03-29T08:07:33;10.90;99.90
22813;DHT22;11573;51.334;3.244;2023-03-29T08:10:19;10.90;99.90
22813;DHT22;11573;51.334;3.244;2023-03-29T08:12:56;11.10;99.90
22813;DHT22;11573;51.334;3.244;2023-03-29T08:15:40;11.20;99.90
22813;DHT22;11573;51.334;3.244;2023-03-29T08:18:22;11.20;99.90
22813;DHT22;11573;51.334;3.244;2023-03-29T08:20:49;11.30;99.90
22813;DHT22;11573;51.334;3.244;2023-03-29T08:23:17;11.40;99.90
22813;DHT22;11573;51.334;3.244;2023-03-29T08:25:53;11.60;99.90
22813;DHT22;11573;51.334;3.244;2023-03-29T08:28:20;11.60;99.90
22813;DHT22;11573;51.334;3.244;2023-03-29T08:30:50;11.70;99.90
22813;DHT22;11573;51.334;3.244;2023-03-29T08:33:17;11.60;99.90
22813;DHT22;11573;51.334;3.244;2023-03-29T08:35:50;11.70;99.90
22813;DHT22;11573;51.334;3.244;2023-03-29T08:38:21;11.70;99.90
22813;DHT22;11573;51.334;3.244;2023-03-29T08:40:49;11.60;99.90
22813;DHT22;11573;51.334;3.244;2023-03-29T08:49:42;11.70;99.90
22813;DHT22;11573;51.334;3.244;2023-03-29T08:52:36;11.50;99.90
22813;DHT22;11573;51.334;3.244;2023-03-29T08:58:19;11.90;99.90
22813;DHT22;11573;51.334;3.244;2023-03-29T09:00:53;12.00;99.90
22813;DHT22;11573;51.334;3.244;2023-03-29T09:03:24;12.10;99.90
22813;DHT22;11573;51.334;3.244;2023-03-29T09:06:07;12.00;99.90
22813;DHT22;11573;51.334;3.244;2023-03-29T09:14:08;12.10;99.90
22813;DHT22;11573;51.334;3.244;2023-03-29T09:19:38;12.30;99.90
22813;DHT22;11573;51.334;3.244;2023-03-29T09:27:39;12.00;99.90
22813;DHT22;11573;51.334;3.244;2023-03-29T09:30:25;12.10;99.90
22813;DHT22;11573;51.334;3.244;2023-03-29T09:38:18;12.40;99.90
22813;DHT22;11573;51.334;3.244;2023-03-29T09:40:53;12.50;99.90
22813;DHT22;11573;51.334;3.244;2023-03-29T09:43:43;12.50;99.90
22813;DHT22;11573;51.334;3.244;2023-03-29T09:46:38;12.80;99.90
22813;DHT22;11573;51.334;3.244;2023-03-29T09:49:17;13.00;99.90
22813;DHT22;11573;51.334;3.244;2023-03-29T09:51:48;13.40;99.90
22813;DHT22;11573;51.334;3.244;2023-03-29T09:54:17;13.30;99.90
22813;DHT22;11573;51.334;3.244;2023-03-29T09:57:12;13.50;99.90
22813;DHT22;11573;51.334;3.244;2023-03-29T09:59:39;13.30;99.90
22813;DHT22;11573;51.334;3.244;2023-03-29T10:02:09;13.20;99.90
22813;DHT22;11573;51.334;3.244;2023-03-29T10:04:38;13.10;99.90
22813;DHT22;11573;51.334;3.244;2023-03-29T10:07:06;13.10;99.90
22813;DHT22;11573;51.334;3.244;2023-03-29T10:09:35;13.20;99.90
22813;DHT22;11573;51.334;3.244;2023-03-29T10:12:15;13.10;99.90
22813;DHT22;11573;51.334;3.244;2023-03-29T10:14:45;13.10;99.90
22813;DHT22;11573;51.334;3.244;2023-03-29T10:17:25;13.20;99.90
22813;DHT22;11573;51.334;3.244;2023-03-29T10:20:00;13.40;99.90
22813;DHT22;11573;51.334;3.244;2023-03-29T10:22:35;13.50;99.90
22813;DHT22;11573;51.334;3.244;2023-03-29T10:25:08;13.80;99.90
22813;DHT22;11573;51.334;3.244;2023-03-29T10:27:35;13.90;99.90
22813;DHT22;11573;51.334;3.244;2023-03-29T10:30:09;13.70;99.90
22813;DHT22;11573;51.334;3.244;2023-03-29T10:32:39;14.20;99.90
22813;DHT22;11573;51.334;3.244;2023-03-29T10:35:15;14.80;99.90
22813;DHT22;11573;51.334;3.244;2023-03-29T10:37:49;15.10;99.90
22813;DHT22;11573;51.334;3.244;2023-03-29T10:40:30;15.20;99.90
22813;DHT22;11573;51.334;3.244;2023-03-29T10:43:00;15.50;99.90
22813;DHT22;11573;51.334;3.244;2023-03-29T10:45:33;16.00;99.90
22813;DHT22;11573;51.334;3.244;2023-03-29T10:48:03;16.60;99.90
22813;DHT22;11573;51.334;3.244;2023-03-29T10:50:34;16.70;99.90
22813;DHT22;11573;51.334;3.244;2023-03-29T10:53:01;16.80;99.90
22813;DHT22;11573;51.334;3.244;2023-03-29T10:55:38;16.70;99.90
22813;DHT22;11573;51.334;3.244;2023-03-29T10:58:30;16.50;99.90
22813;DHT22;11573;51.334;3.244;2023-03-29T11:01:03;16.60;99.90
22813;DHT22;11573;51.334;3.244;2023-03-29T11:06:39;16.70;99.90
22813;DHT22;11573;51.334;3.244;2023-03-29T11:26:57;16.80;99.90
22813;DHT22;11573;51.334;3.244;2023-03-29T11:32:31;17.20;99.90
22813;DHT22;11573;51.334;3.244;2023-03-29T11:38:07;17.30;99.90
22813;DHT22;11573;51.334;3.244;2023-03-29T11:43:24;17.30;99.90
22813;DHT22;11573;51.334;3.244;2023-03-29T11:46:16;17.40;99.90
22813;DHT22;11573;51.334;3.244;2023-03-29T11:48:59;17.40;99.90
22813;DHT22;11573;51.334;3.244;2023-03-29T11:52:00;17.60;99.90
22813;DHT22;11573;51.334;3.244;2023-03-29T11:54:44;18.00;99.90
22813;DHT22;11573;51.334;3.244;2023-03-29T11:57:21;18.10;99.90
22813;DHT22;11573;51.334;3.244;2023-03-29T12:00:09;18.50;99.90
22813;DHT22;11573;51.334;3.244;2023-03-29T12:03:00;18.60;99.90
22813;DHT22;11573;51.334;3.244;2023-03-29T12:05:44;18.60;99.90
22813;DHT22;11573;51.334;3.244;2023-03-29T12:08:17;18.60;99.90
22813;DHT22;11573;51.334;3.244;2023-03-29T12:10:55;18.50;99.90
22813;DHT22;11573;51.334;3.244;2023-03-29T12:13:33;18.40;99.90
22813;DHT22;11573;51.334;3.244;2023-03-29T12:16:13;18.60;99.90
22813;DHT22;11573;51.334;3.244;2023-03-29T12:18:45;18.50;99.90
22813;DHT22;11573;51.334;3.244;2023-03-29T12:21:15;18.60;99.90
22813;DHT22;11573;51.334;3.244;2023-03-29T12:23:46;18.70;99.90
22813;DHT22;11573;51.334;3.244;2023-03-29T12:29:08;18.60;99.90
22813;DHT22;11573;51.334;3.244;2023-03-29T12:40:15;18.60;99.90
22813;DHT22;11573;51.334;3.244;2023-03-29T12:43:05;18.60;99.90
22813;DHT22;11573;51.334;3.244;2023-03-29T12:46:00;18.50;99.90
22813;DHT22;11573;51.334;3.244;2023-03-29T12:48:32;18.10;99.90
22813;DHT22;11573;51.334;3.244;2023-03-29T12:51:03;18.10;99.90
22813;DHT22;11573;51.334;3.244;2023-03-29T12:53:36;18.30;99.90
22813;DHT22;11573;51.334;3.244;2023-03-29T12:58:54;18.60;99.90
22813;DHT22;11573;51.334;3.244;2023-03-29T13:01:32;18.60;99.90
22813;DHT22;11573;51.334;3.244;2023-03-29T13:06:32;18.50;99.90
22813;DHT22;11573;51.334;3.244;2023-03-29T13:09:22;18.60;99.90
22813;DHT22;11573;51.334;3.244;2023-03-29T13:14:34;18.60;99.90
22813;DHT22;11573;51.334;3.244;2023-03-29T13:17:05;18.50;99.90
22813;DHT22;11573;51.334;3.244;2023-03-29T13:28:43;18.80;99.90
22813;DHT22;11573;51.334;3.244;2023-03-29T13:31:27;18.70;99.90
22813;DHT22;11573;51.334;3.244;2023-03-29T13:39:27;18.90;99.90
22813;DHT22;11573;51.334;3.244;2023-03-29T13:42:36;18.70;99.90
22813;DHT22;11573;51.334;3.244;2023-03-29T13:45:26;18.40;99.90
22813;DHT22;11573;51.334;3.244;2023-03-29T13:48:19;18.00;99.90
22813;DHT22;11573;51.334;3.244;2023-03-29T13:56:23;17.90;99.90
22813;DHT22;11573;51.334;3.244;2023-03-29T13:59:04;17.70;99.90
22813;DHT22;11573;51.334;3.244;2023-03-29T14:01:42;17.90;99.90
22813;DHT22;11573;51.334;3.244;2023-03-29T14:04:23;18.20;99.90
22813;DHT22;11573;51.334;3.244;2023-03-29T14:06:52;18.50;99.90
22813;DHT22;11573;51.334;3.244;2023-03-29T14:09:24;18.50;99.90
22813;DHT22;11573;51.334;3.244;2023-03-29T14:11:53;18.70;99.90
22813;DHT22;11573;51.334;3.244;2023-03-29T14:14:22;18.60;99.90
22813;DHT22;11573;51.334;3.244;2023-03-29T14:16:53;18.40;99.90
22813;DHT22;11573;51.334;3.244;2023-03-29T14:19:30;18.20;99.90
22813;DHT22;11573;51.334;3.244;2023-03-29T14:22:01;18.10;99.90
22813;DHT22;11573;51.334;3.244;2023-03-29T14:24:39;18.10;99.90
22813;DHT22;11573;51.334;3.244;2023-03-29T14:27:11;18.00;99.90
22813;DHT22;11573;51.334;3.244;2023-03-29T14:29:37;17.80;99.90
22813;DHT22;11573;51.334;3.244;2023-03-29T14:32:09;17.60;99.90
22813;DHT22;11573;51.334;3.244;2023-03-29T14:34:38;17.10;99.90
22813;DHT22;11573;51.334;3.244;2023-03-29T14:37:05;17.30;99.90
22813;DHT22;11573;51.334;3.244;2023-03-29T14:39:35;17.30;99.90
22813;DHT22;11573;51.334;3.244;2023-03-29T14:42:03;17.60;99.90
22813;DHT22;11573;51.334;3.244;2023-03-29T14:44:36;17.80;99.90
22813;DHT22;11573;51.334;3.244;2023-03-29T14:47:03;17.80;99.90
22813;DHT22;11573;51.334;3.244;2023-03-29T14:49:30;18.00;99.90
22813;DHT22;11573;51.334;3.244;2023-03-29T14:51:58;18.10;99.90
22813;DHT22;11573;51.334;3.244;2023-03-29T14:54:27;18.20;99.90
22813;DHT22;11573;51.334;3.244;2023-03-29T14:56:55;18.30;99.90
22813;DHT22;11573;51.334;3.244;2023-03-29T14:59:28;18.30;99.90
22813;DHT22;11573;51.334;3.244;2023-03-29T15:01:57;18.40;99.90
22813;DHT22;11573;51.334;3.244;2023-03-29T15:04:34;18.20;99.90
22813;DHT22;11573;51.334;3.244;2023-03-29T15:07:02;18.10;99.90
22813;DHT22;11573;51.334;3.244;2023-03-29T15:09:33;18.10;99.90
22813;DHT22;11573;51.334;3.244;2023-03-29T15:12:01;18.10;99.90
22813;DHT22;11573;51.334;3.244;2023-03-29T15:14:31;18.10;99.90
22813;DHT22;11573;51.334;3.244;2023-03-29T15:17:18;17.90;99.90
22813;DHT22;11573;51.334;3.244;2023-03-29T15:19:51;17.90;99.90
22813;DHT22;11573;51.334;3.244;2023-03-29T15:22:18;18.00;99.90
22813;DHT22;11573;51.334;3.244;2023-03-29T15:24:47;18.10;99.90
22813;DHT22;11573;51.334;3.244;2023-03-29T15:27:17;18.20;99.90
22813;DHT22;11573;51.334;3.244;2023-03-29T15:29:45;18.10;99.90
22813;DHT22;11573;51.334;3.244;2023-03-29T15:32:21;17.90;99.90
22813;DHT22;11573;51.334;3.244;2023-03-29T15:35:03;17.70;99.90
22813;DHT22;11573;51.334;3.244;2023-03-29T15:37:31;17.80;99.90
22813;DHT22;11573;51.334;3.244;2023-03-29T15:39:58;17.90;99.90
22813;DHT22;11573;51.334;3.244;2023-03-29T15:42:25;17.80;99.90
22813;DHT22;11573;51.334;3.244;2023-03-29T15:44:54;17.70;99.90
22813;DHT22;11573;51.334;3.244;2023-03-29T15:47:22;17.70;99.90
22813;DHT22;11573;51.334;3.244;2023-03-29T15:49:49;17.60;99.90
22813;DHT22;11573;51.334;3.244;2023-03-29T15:52:16;17.60;99.90
22813;DHT22;11573;51.334;3.244;2023-03-29T15:54:43;17.50;99.90
22813;DHT22;11573;51.334;3.244;2023-03-29T15:57:13;17.40;99.90
22813;DHT22;11573;51.334;3.244;2023-03-29T15:59:42;17.40;99.90
22813;DHT22;11573;51.334;3.244;2023-03-29T16:02:14;17.40;99.90
22813;DHT22;11573;51.334;3.244;2023-03-29T16:04:42;17.30;99.90
22813;DHT22;11573;51.334;3.244;2023-03-29T16:07:13;17.30;99.90
22813;DHT22;11573;51.334;3.244;2023-03-29T16:09:40;17.30;99.90
22813;DHT22;11573;51.334;3.244;2023-03-29T16:12:08;17.30;99.90
22813;DHT22;11573;51.334;3.244;2023-03-29T16:14:36;17.30;99.90
22813;DHT22;11573;51.334;3.244;2023-03-29T16:17:04;17.30;99.90
22813;DHT22;11573;51.334;3.244;2023-03-29T16:19:32;17.30;99.90
22813;DHT22;11573;51.334;3.244;2023-03-29T16:22:01;17.30;99.90
22813;DHT22;11573;51.334;3.244;2023-03-29T16:24:31;17.20;99.90
22813;DHT22;11573;51.334;3.244;2023-03-29T16:26:59;17.10;99.90
22813;DHT22;11573;51.334;3.244;2023-03-29T16:29:27;17.10;99.90
22813;DHT22;11573;51.334;3.244;2023-03-29T16:31:54;17.10;99.90
22813;DHT22;11573;51.334;3.244;2023-03-29T16:34:21;17.10;99.90
22813;DHT22;11573;51.334;3.244;2023-03-29T16:36:49;17.10;99.90
22813;DHT22;11573;51.334;3.244;2023-03-29T16:39:16;17.20;99.90
22813;DHT22;11573;51.334;3.244;2023-03-29T16:41:44;17.20;99.90
22813;DHT22;11573;51.334;3.244;2023-03-29T16:44:19;17.20;99.90
22813;DHT22;11573;51.334;3.244;2023-03-29T16:46:50;17.20;99.90
22813;DHT22;11573;51.334;3.244;2023-03-29T16:49:20;17.10;99.90
22813;DHT22;11573;51.334;3.244;2023-03-29T16:51:47;17.00;99.90
22813;DHT22;11573;51.334;3.244;2023-03-29T16:54:15;17.00;99.90
22813;DHT22;11573;51.334;3.244;2023-03-29T16:56:45;17.00;99.90
22813;DHT22;11573;51.334;3.244;2023-03-29T16:59:13;17.00;99.90
22813;DHT22;11573;51.334;3.244;2023-03-29T17:01:40;17.00;99.90
22813;DHT22;11573;51.334;3.244;2023-03-29T17:04:07;16.90;99.90
22813;DHT22;11573;51.334;3.244;2023-03-29T17:06:34;16.90;99.90
22813;DHT22;11573;51.334;3.244;2023-03-29T17:09:02;16.90;99.90
22813;DHT22;11573;51.334;3.244;2023-03-29T17:11:30;16.80;99.90
22813;DHT22;11573;51.334;3.244;2023-03-29T17:13:58;16.80;99.90
22813;DHT22;11573;51.334;3.244;2023-03-29T17:16:25;16.70;99.90
22813;DHT22;11573;51.334;3.244;2023-03-29T17:18:56;16.70;99.90
22813;DHT22;11573;51.334;3.244;2023-03-29T17:21:26;16.70;99.90
22813;DHT22;11573;51.334;3.244;2023-03-29T17:23:54;16.70;99.90
22813;DHT22;11573;51.334;3.244;2023-03-29T17:26:21;16.70;99.90
22813;DHT22;11573;51.334;3.244;2023-03-29T17:28:48;16.60;99.90
22813;DHT22;11573;51.334;3.244;2023-03-29T17:31:15;16.50;99.90
22813;DHT22;11573;51.334;3.244;2023-03-29T17:33:44;16.50;99.90
22813;DHT22;11573;51.334;3.244;2023-03-29T17:36:11;16.40;99.90
22813;DHT22;11573;51.334;3.244;2023-03-29T17:38:38;16.30;99.90
22813;DHT22;11573;51.334;3.244;2023-03-29T17:41:05;16.30;99.90
22813;DHT22;11573;51.334;3.244;2023-03-29T17:43:33;16.20;99.90
22813;DHT22;11573;51.334;3.244;2023-03-29T17:46:00;16.20;99.90
22813;DHT22;11573;51.334;3.244;2023-03-29T17:48:28;16.20;99.90
22813;DHT22;11573;51.334;3.244;2023-03-29T17:50:54;16.10;99.90
22813;DHT22;11573;51.334;3.244;2023-03-29T17:53:23;16.00;99.90
22813;DHT22;11573;51.334;3.244;2023-03-29T17:55:51;16.00;99.90
22813;DHT22;11573;51.334;3.244;2023-03-29T17:58:18;15.90;99.90
22813;DHT22;11573;51.334;3.244;2023-03-29T18:00:45;15.90;99.90
22813;DHT22;11573;51.334;3.244;2023-03-29T18:03:12;15.80;99.90
22813;DHT22;11573;51.334;3.244;2023-03-29T18:05:39;15.80;99.90
22813;DHT22;11573;51.334;3.244;2023-03-29T18:08:06;15.70;99.90
22813;DHT22;11573;51.334;3.244;2023-03-29T18:10:34;15.70;99.90